createdAt,value
2023-05-09T00:01:21.691Z,0.40
2023-05-09T00:04:09.447Z,0.30
2023-05-09T00:06:57.271Z,0.85
2023-05-09T00:09:44.842Z,2.05
2023-05-09T00:12:32.567Z,0.85
2023-05-09T00:15:20.393Z,0.25
2023-05-09T00:18:08.422Z,0.20
2023-05-09T00:20:57.021Z,0.17
2023-05-09T00:23:44.596Z,0.20
2023-05-09T00:26:32.631Z,0.55
2023-05-09T00:29:23.091Z,1.60
2023-05-09T00:32:11.320Z,1.05
2023-05-09T00:34:59.175Z,0.22
2023-05-09T00:37:46.883Z,0.25
2023-05-09T00:40:34.577Z,0.25
2023-05-09T00:43:22.226Z,2.03
2023-05-09T00:46:10.102Z,1.35
2023-05-09T00:48:57.968Z,0.35
2023-05-09T00:51:46.352Z,1.70
2023-05-09T00:54:34.505Z,0.98
2023-05-09T00:57:23.212Z,1.33
2023-05-09T01:00:13.572Z,1.13
2023-05-09T01:03:01.559Z,1.15
2023-05-09T01:06:07.292Z,4.07
2023-05-09T01:09:23.291Z,0.43
2023-05-09T01:12:29.600Z,4.03
2023-05-09T01:15:42.469Z,2.15
2023-05-09T01:18:46.169Z,1.15
2023-05-09T01:21:35.671Z,1.45
2023-05-09T01:24:48.288Z,0.85
2023-05-09T01:27:51.247Z,1.25
2023-05-09T01:30:41.020Z,0.93
2023-05-09T01:33:31.888Z,1.08
2023-05-09T01:36:23.702Z,3.35
2023-05-09T01:39:13.912Z,1.10
2023-05-09T01:42:05.016Z,2.10
2023-05-09T01:44:54.556Z,4.53
2023-05-09T01:47:43.472Z,2.60
2023-05-09T01:50:35.805Z,2.78
2023-05-09T01:53:24.993Z,1.73
2023-05-09T01:56:15.736Z,3.58
2023-05-09T01:59:06.915Z,2.38
2023-05-09T02:01:56.010Z,2.40
2023-05-09T02:04:45.159Z,1.80
2023-05-09T02:07:42.421Z,1.10
2023-05-09T02:10:44.796Z,7.13
2023-05-09T02:16:27.976Z,4.88
2023-05-09T02:19:17.135Z,1.88
2023-05-09T02:22:05.359Z,2.30
2023-05-09T02:24:54.151Z,2.33
2023-05-09T02:27:44.624Z,3.05
2023-05-09T02:30:39.297Z,3.15
2023-05-09T02:33:28.427Z,3.85
2023-05-09T02:36:17.540Z,4.75
2023-05-09T02:39:05.494Z,1.83
2023-05-09T02:41:53.191Z,3.30
2023-05-09T02:44:41.162Z,2.13
2023-05-09T02:47:29.056Z,3.30
2023-05-09T02:50:19.008Z,2.17
2023-05-09T02:53:06.794Z,14.35
2023-05-09T02:55:55.061Z,7.85
2023-05-09T02:58:51.517Z,4.82
2023-05-09T03:01:39.708Z,7.60
2023-05-09T03:04:30.697Z,3.90
2023-05-09T03:07:18.610Z,2.92
2023-05-09T03:10:07.461Z,2.35
2023-05-09T03:12:55.285Z,2.75
2023-05-09T03:15:43.013Z,2.15
2023-05-09T03:18:33.317Z,2.88
2023-05-09T03:21:21.592Z,9.65
2023-05-09T03:24:11.301Z,1.95
2023-05-09T03:26:59.030Z,4.13
2023-05-09T03:29:46.945Z,2.38
2023-05-09T03:32:39.254Z,2.42
2023-05-09T03:35:26.984Z,3.38
2023-05-09T03:38:15.965Z,2.47
2023-05-09T03:41:04.503Z,3.42
2023-05-09T03:43:53.410Z,1.63
2023-05-09T03:46:41.230Z,3.05
2023-05-09T03:49:29.646Z,1.98
2023-05-09T03:52:17.426Z,4.45
2023-05-09T03:55:06.414Z,2.92
2023-05-09T03:57:56.596Z,3.38
2023-05-09T04:00:45.801Z,2.92
2023-05-09T04:03:40.719Z,3.45
2023-05-09T04:06:30.269Z,1.35
2023-05-09T04:09:19.643Z,1.63
2023-05-09T04:12:09.234Z,4.30
2023-05-09T04:14:57.106Z,1.52
2023-05-09T04:17:46.201Z,2.05
2023-05-09T04:20:34.097Z,1.80
2023-05-09T04:23:22.418Z,1.65
2023-05-09T04:26:12.541Z,2.03
2023-05-09T04:29:04.858Z,1.67
2023-05-09T04:31:53.440Z,2.05
2023-05-09T04:34:44.668Z,2.28
2023-05-09T04:37:38.049Z,7.95
2023-05-09T04:40:27.008Z,1.33
2023-05-09T04:43:19.263Z,1.77
2023-05-09T04:46:08.101Z,2.78
2023-05-09T04:48:56.512Z,1.00
2023-05-09T04:51:44.244Z,4.50
2023-05-09T04:54:32.028Z,2.25
2023-05-09T04:57:19.791Z,1.13
2023-05-09T05:00:13.971Z,1.80
2023-05-09T05:03:02.229Z,1.52
2023-05-09T05:05:51.402Z,4.50
2023-05-09T05:08:39.136Z,2.33
2023-05-09T05:11:27.076Z,3.13
2023-05-09T05:14:15.024Z,1.73
2023-05-09T05:17:02.905Z,2.33
2023-05-09T05:19:50.685Z,3.38
2023-05-09T05:22:39.040Z,2.30
2023-05-09T05:25:27.012Z,1.42
2023-05-09T05:28:16.160Z,3.80
2023-05-09T05:31:03.900Z,7.40
2023-05-09T05:33:51.562Z,4.03
2023-05-09T05:36:40.209Z,4.28
2023-05-09T05:39:28.259Z,3.35
2023-05-09T05:42:15.961Z,3.03
2023-05-09T05:45:07.000Z,3.30
2023-05-09T05:47:59.602Z,3.40
2023-05-09T05:50:47.451Z,2.45
2023-05-09T05:53:38.063Z,1.85
2023-05-09T05:56:26.409Z,1.70
2023-05-09T05:59:14.273Z,5.55
2023-05-09T06:02:03.005Z,1.98
2023-05-09T06:04:52.265Z,1.80
2023-05-09T06:07:47.010Z,6.43
2023-05-09T06:10:37.648Z,1.80
2023-05-09T06:13:25.348Z,4.00
2023-05-09T06:16:20.327Z,7.43
2023-05-09T06:19:11.809Z,3.95
2023-05-09T06:21:59.590Z,2.78
2023-05-09T06:24:47.289Z,3.95
2023-05-09T06:27:35.064Z,4.43
2023-05-09T06:30:26.999Z,6.80
2023-05-09T06:33:15.027Z,2.20
2023-05-09T06:36:02.743Z,3.13
2023-05-09T06:38:50.496Z,3.17
2023-05-09T06:41:38.156Z,3.75
2023-05-09T06:44:26.126Z,3.88
2023-05-09T06:47:13.918Z,2.42
2023-05-09T06:50:01.695Z,5.05
2023-05-09T06:52:49.334Z,2.75
2023-05-09T06:55:37.076Z,2.40
2023-05-09T06:58:24.806Z,2.80
2023-05-09T07:01:12.564Z,2.28
2023-05-09T07:04:01.948Z,6.15
2023-05-09T07:06:49.671Z,6.45
2023-05-09T07:09:37.420Z,6.13
2023-05-09T07:12:26.222Z,3.25
2023-05-09T07:15:18.337Z,4.13
2023-05-09T07:18:10.810Z,6.20
2023-05-09T07:20:58.468Z,7.15
2023-05-09T07:23:46.029Z,4.10
2023-05-09T07:26:35.371Z,3.33
2023-05-09T07:29:23.056Z,7.07
2023-05-09T07:32:11.336Z,4.22
2023-05-09T07:34:59.158Z,4.00
2023-05-09T07:37:46.960Z,4.72
2023-05-09T07:40:36.684Z,6.28
2023-05-09T07:43:24.374Z,2.60
2023-05-09T07:46:12.005Z,5.88
2023-05-09T07:49:00.052Z,2.95
2023-05-09T07:51:48.053Z,7.03
2023-05-09T07:54:35.770Z,3.45
2023-05-09T07:57:26.110Z,3.67
2023-05-09T08:00:15.371Z,15.18
2023-05-09T08:03:03.105Z,4.03
2023-05-09T08:05:58.334Z,6.32
2023-05-09T08:08:46.447Z,3.67
2023-05-09T08:11:35.449Z,4.10
2023-05-09T08:14:23.161Z,6.00
2023-05-09T08:17:10.878Z,3.88
2023-05-09T08:19:58.570Z,5.32
2023-05-09T08:22:46.247Z,3.30
2023-05-09T08:25:34.050Z,2.90
2023-05-09T08:28:24.539Z,7.47
2023-05-09T08:31:12.189Z,6.35
2023-05-09T08:33:59.851Z,3.97
2023-05-09T08:36:47.708Z,3.90
2023-05-09T08:39:35.561Z,3.22
2023-05-09T08:42:26.233Z,3.10
2023-05-09T08:45:15.391Z,3.97
2023-05-09T08:48:04.248Z,4.30
2023-05-09T08:50:56.336Z,4.55
2023-05-09T08:56:32.151Z,9.77
2023-05-09T08:59:19.961Z,6.85
2023-05-09T09:02:08.457Z,9.50
2023-05-09T09:04:56.691Z,4.13
2023-05-09T09:07:45.548Z,9.57
2023-05-09T09:10:33.632Z,3.10
2023-05-09T09:13:22.263Z,7.13
2023-05-09T09:16:20.898Z,3.22
2023-05-09T09:19:13.393Z,9.85
2023-05-09T09:22:06.096Z,5.22
2023-05-09T09:24:53.840Z,4.38
2023-05-09T09:27:42.171Z,5.07
2023-05-09T09:30:29.967Z,6.18
2023-05-09T09:33:26.001Z,4.15
2023-05-09T09:36:16.441Z,8.82
2023-05-09T09:39:05.596Z,4.30
2023-05-09T09:41:53.552Z,4.15
2023-05-09T09:44:41.281Z,2.47
2023-05-09T09:47:34.794Z,8.45
2023-05-09T09:50:25.834Z,9.10
2023-05-09T09:53:13.617Z,4.40
2023-05-09T09:56:04.761Z,4.63
2023-05-09T09:59:08.927Z,2.25
2023-05-09T10:01:59.158Z,5.43
2023-05-09T10:04:46.825Z,6.05
2023-05-09T10:07:35.734Z,9.82
2023-05-09T10:10:26.418Z,5.32
2023-05-09T10:13:14.342Z,4.35
2023-05-09T10:16:02.542Z,5.15
2023-05-09T10:18:50.449Z,4.95
2023-05-09T10:21:40.333Z,3.97
2023-05-09T10:25:03.174Z,11.95
2023-05-09T10:27:54.450Z,9.77
2023-05-09T10:31:18.441Z,4.63
2023-05-09T10:34:10.896Z,6.32
2023-05-09T10:37:00.698Z,3.03
2023-05-09T10:39:53.916Z,4.75
2023-05-09T10:42:44.342Z,8.10
2023-05-09T10:45:32.092Z,8.02
2023-05-09T10:48:20.424Z,7.40
2023-05-09T10:51:08.602Z,3.45
2023-05-09T10:53:56.865Z,3.53
2023-05-09T10:56:44.886Z,9.77
2023-05-09T10:59:43.417Z,7.07
2023-05-09T11:02:32.956Z,3.92
2023-05-09T11:05:20.901Z,7.55
2023-05-09T11:08:27.036Z,3.85
2023-05-09T11:11:26.647Z,8.18
2023-05-09T11:14:30.359Z,10.45
2023-05-09T11:17:27.183Z,11.88
2023-05-09T11:20:14.915Z,8.55
2023-05-09T11:23:05.843Z,2.92
2023-05-09T11:25:54.054Z,7.65
2023-05-09T11:28:42.004Z,5.00
2023-05-09T11:31:29.899Z,3.05
2023-05-09T11:34:20.490Z,6.65
2023-05-09T11:37:13.469Z,2.63
2023-05-09T11:40:05.779Z,2.47
2023-05-09T11:42:58.399Z,3.15
2023-05-09T11:45:46.697Z,4.72
2023-05-09T11:48:42.518Z,9.35
2023-05-09T11:51:30.399Z,5.63
2023-05-09T11:54:18.087Z,7.32
2023-05-09T11:57:06.644Z,8.73
2023-05-09T11:59:54.587Z,4.05
2023-05-09T12:02:44.516Z,6.47
2023-05-09T12:05:32.481Z,2.88
2023-05-09T12:08:20.262Z,2.85
2023-05-09T12:11:09.193Z,4.22
2023-05-09T12:13:56.902Z,7.60
2023-05-09T12:16:48.007Z,4.25
2023-05-09T12:19:36.912Z,4.30
2023-05-09T12:22:24.629Z,5.60
2023-05-09T12:25:12.676Z,12.40
2023-05-09T12:28:00.487Z,8.82
2023-05-09T12:30:48.293Z,14.55
2023-05-09T12:33:38.817Z,12.43
2023-05-09T12:36:26.622Z,10.52
2023-05-09T12:39:14.320Z,10.85
2023-05-09T12:42:02.332Z,6.35
2023-05-09T12:44:51.704Z,7.22
2023-05-09T12:47:39.740Z,7.38
2023-05-09T12:50:36.913Z,4.82
2023-05-09T12:53:26.016Z,4.57
2023-05-09T12:56:17.241Z,5.22
2023-05-09T12:59:04.887Z,7.07
2023-05-09T13:01:58.288Z,3.72
2023-05-09T13:04:46.264Z,7.72
2023-05-09T13:07:45.803Z,4.68
2023-05-09T13:10:34.060Z,5.97
2023-05-09T13:13:26.727Z,5.32
2023-05-09T13:16:16.804Z,8.27
2023-05-09T13:19:05.733Z,2.95
2023-05-09T13:21:55.356Z,3.53
2023-05-09T13:24:43.074Z,2.90
2023-05-09T13:27:31.227Z,2.60
2023-05-09T13:30:19.493Z,3.55
2023-05-09T13:33:24.089Z,4.55
2023-05-09T13:36:13.196Z,8.48
2023-05-09T13:39:01.053Z,2.92
2023-05-09T13:41:53.221Z,4.43
2023-05-09T13:44:42.082Z,16.67
2023-05-09T13:47:29.880Z,5.38
2023-05-09T13:50:18.147Z,3.17
2023-05-09T13:53:06.052Z,3.40
2023-05-09T13:55:53.744Z,4.35
2023-05-09T13:58:41.436Z,3.13
2023-05-09T14:01:29.221Z,6.32
2023-05-09T14:04:19.187Z,2.53
2023-05-09T14:07:07.003Z,5.45
2023-05-09T14:10:08.194Z,2.92
2023-05-09T14:13:31.586Z,4.72
2023-05-09T14:16:20.426Z,9.00
2023-05-09T14:19:08.074Z,2.75
2023-05-09T14:21:55.997Z,7.40
2023-05-09T14:24:43.681Z,3.70
2023-05-09T14:27:37.283Z,2.97
2023-05-09T14:30:26.793Z,6.10
2023-05-09T14:33:15.044Z,5.95
2023-05-09T14:36:03.404Z,6.22
2023-05-09T14:38:51.313Z,6.00
2023-05-09T14:41:39.068Z,3.78
2023-05-09T14:44:27.295Z,2.70
2023-05-09T14:47:15.048Z,3.72
2023-05-09T14:50:03.433Z,7.45
2023-05-09T14:52:51.464Z,3.95
2023-05-09T14:55:39.168Z,4.03
2023-05-09T14:58:32.160Z,3.63
2023-05-09T15:01:20.266Z,12.02
2023-05-09T15:04:08.126Z,3.47
2023-05-09T15:06:56.444Z,12.25
2023-05-09T15:09:44.198Z,3.67
2023-05-09T15:12:38.408Z,2.42
2023-05-09T15:15:27.790Z,6.40
2023-05-09T15:18:28.149Z,6.80
2023-05-09T15:21:21.839Z,2.90
2023-05-09T15:24:10.031Z,8.13
2023-05-09T15:27:20.547Z,4.00
2023-05-09T15:30:12.056Z,3.38
2023-05-09T15:33:02.596Z,3.47
2023-05-09T15:35:50.863Z,4.50
2023-05-09T15:38:41.008Z,2.80
2023-05-09T15:41:31.988Z,4.20
2023-05-09T15:44:37.172Z,5.25
2023-05-09T15:47:28.160Z,5.05
2023-05-09T15:50:17.356Z,4.97
2023-05-09T15:53:05.782Z,3.97
2023-05-09T15:55:53.499Z,4.03
2023-05-09T15:58:41.426Z,4.15
2023-05-09T16:01:29.080Z,8.20
2023-05-09T16:04:16.853Z,3.83
2023-05-09T16:07:04.702Z,7.78
2023-05-09T16:09:52.557Z,10.82
2023-05-09T16:12:42.687Z,11.90
2023-05-09T16:15:33.040Z,11.18
2023-05-09T16:18:22.858Z,4.53
2023-05-09T16:21:15.831Z,8.65
2023-05-09T16:24:06.791Z,8.73
2023-05-09T16:26:57.780Z,5.40
2023-05-09T16:29:45.620Z,4.10
2023-05-09T16:32:36.590Z,11.40
2023-05-09T16:35:24.449Z,11.07
2023-05-09T16:38:13.689Z,6.35
2023-05-09T16:41:02.792Z,6.32
2023-05-09T16:43:50.610Z,6.45
2023-05-09T16:46:38.310Z,5.88
2023-05-09T16:49:26.154Z,8.38
2023-05-09T16:52:13.991Z,10.77
2023-05-09T16:55:02.128Z,3.97
2023-05-09T16:57:49.994Z,6.93
2023-05-09T17:00:38.149Z,8.80
2023-05-09T17:03:26.231Z,8.02
2023-05-09T17:06:14.116Z,4.53
2023-05-09T17:09:01.943Z,7.88
2023-05-09T17:11:55.310Z,11.18
2023-05-09T17:14:46.037Z,4.28
2023-05-09T17:17:34.865Z,4.38
2023-05-09T17:20:23.245Z,10.60
2023-05-09T17:23:10.854Z,5.90
2023-05-09T17:25:58.557Z,11.27
2023-05-09T17:28:46.709Z,6.60
2023-05-09T17:31:37.044Z,8.02
2023-05-09T17:34:24.968Z,4.55
2023-05-09T17:37:13.191Z,5.03
2023-05-09T17:40:01.148Z,3.92
2023-05-09T17:42:49.232Z,9.48
2023-05-09T17:45:38.272Z,4.95
2023-05-09T17:48:26.096Z,3.88
2023-05-09T17:51:13.934Z,6.15
2023-05-09T17:54:01.717Z,11.63
2023-05-09T17:56:52.540Z,7.63
2023-05-09T17:59:41.610Z,12.20
2023-05-09T18:02:29.366Z,10.30
2023-05-09T18:05:17.286Z,8.65
2023-05-09T18:08:13.921Z,9.60
2023-05-09T18:11:02.321Z,14.27
2023-05-09T18:13:51.357Z,5.45
2023-05-09T18:16:39.148Z,9.35
2023-05-09T18:19:26.943Z,9.70
2023-05-09T18:22:15.883Z,5.53
2023-05-09T18:25:12.487Z,6.45
2023-05-09T18:28:12.888Z,10.32
2023-05-09T18:31:01.521Z,4.93
2023-05-09T18:33:49.448Z,10.55
2023-05-09T18:36:38.270Z,7.68
2023-05-09T18:39:31.375Z,8.43
2023-05-09T18:42:19.548Z,7.40
2023-05-09T18:45:09.075Z,9.65
2023-05-09T18:47:56.839Z,9.20
2023-05-09T18:50:44.929Z,8.70
2023-05-09T18:53:33.002Z,9.65
2023-05-09T18:56:22.335Z,7.15
2023-05-09T18:59:12.711Z,7.10
2023-05-09T19:02:00.385Z,16.88
2023-05-09T19:04:50.671Z,13.13
2023-05-09T19:07:39.234Z,11.10
2023-05-09T19:10:26.984Z,10.23
2023-05-09T19:13:16.536Z,6.90
2023-05-09T19:16:08.979Z,10.90
2023-05-09T19:19:02.072Z,7.07
2023-05-09T19:21:50.319Z,5.78
2023-05-09T19:24:38.284Z,11.25
2023-05-09T19:27:26.031Z,7.45
2023-05-09T19:30:15.621Z,10.57
2023-05-09T19:33:03.632Z,9.25
2023-05-09T19:35:51.415Z,8.75
2023-05-09T19:38:39.239Z,8.38
2023-05-09T19:41:26.991Z,12.75
2023-05-09T19:44:14.779Z,10.68
2023-05-09T19:47:05.378Z,16.23
2023-05-09T19:49:54.145Z,11.20
2023-05-09T19:52:41.895Z,14.43
2023-05-09T19:55:29.533Z,14.15
2023-05-09T19:58:17.853Z,18.83
2023-05-09T20:01:07.176Z,17.60
2023-05-09T20:03:56.999Z,21.95
2023-05-09T20:06:45.536Z,20.20
2023-05-09T20:09:33.333Z,21.48
2023-05-09T20:12:21.082Z,38.22
2023-05-09T20:15:09.213Z,32.97
2023-05-09T20:17:56.985Z,26.02
2023-05-09T20:20:44.850Z,24.75
2023-05-09T20:23:32.499Z,22.30
2023-05-09T20:26:23.907Z,21.85
2023-05-09T20:29:12.976Z,16.63
2023-05-09T20:32:00.838Z,10.43
2023-05-09T20:34:48.961Z,12.85
2023-05-09T20:37:37.241Z,19.90
2023-05-09T20:40:25.029Z,9.77
2023-05-09T20:43:12.811Z,13.13
2023-05-09T20:46:01.361Z,13.43
2023-05-09T20:48:49.020Z,14.88
2023-05-09T20:51:36.710Z,12.20
2023-05-09T20:54:24.616Z,19.98
2023-05-09T20:57:12.214Z,21.83
2023-05-09T21:00:00.244Z,22.17
2023-05-09T21:02:48.090Z,23.75
2023-05-09T21:05:35.816Z,18.48
2023-05-09T21:08:23.580Z,25.50
2023-05-09T21:11:11.294Z,13.48
2023-05-09T21:13:58.960Z,15.48
2023-05-09T21:16:46.946Z,13.55
2023-05-09T21:19:34.935Z,17.45
2023-05-09T21:22:25.519Z,13.77
2023-05-09T21:25:13.227Z,10.90
2023-05-09T21:28:01.008Z,12.43
2023-05-09T21:30:52.707Z,13.30
2023-05-09T21:33:40.583Z,14.77
2023-05-09T21:36:29.305Z,11.75
2023-05-09T21:39:16.960Z,9.07
2023-05-09T21:42:04.622Z,10.60
2023-05-09T21:44:52.316Z,8.32
2023-05-09T21:47:40.290Z,10.38
2023-05-09T21:50:28.112Z,11.65
2023-05-09T21:53:15.795Z,6.80
2023-05-09T21:56:03.685Z,8.23
2023-05-09T21:58:51.563Z,11.15
2023-05-09T22:01:39.428Z,11.40
2023-05-09T22:04:27.175Z,8.75
2023-05-09T22:07:14.941Z,10.05
2023-05-09T22:10:03.809Z,6.97
2023-05-09T22:12:51.652Z,10.55
2023-05-09T22:15:39.521Z,10.85
2023-05-09T22:18:27.447Z,5.57
2023-05-09T22:21:15.153Z,9.60
2023-05-09T22:24:02.945Z,6.78
2023-05-09T22:26:50.717Z,10.40
2023-05-09T22:29:38.601Z,5.32
2023-05-09T22:32:26.333Z,5.38
2023-05-09T22:35:14.107Z,7.15
2023-05-09T22:38:03.533Z,4.32
2023-05-09T22:40:51.285Z,7.43
2023-05-09T22:43:39.784Z,7.25
2023-05-09T22:46:27.792Z,7.57
2023-05-09T22:49:15.642Z,7.18
2023-05-09T22:52:03.537Z,5.97
2023-05-09T22:54:51.269Z,10.75
2023-05-09T22:57:39.013Z,10.40
2023-05-09T23:00:26.752Z,2.70
2023-05-09T23:03:14.529Z,6.70
2023-05-09T23:06:02.298Z,2.30
2023-05-09T23:08:50.052Z,2.92
2023-05-09T23:11:38.095Z,4.38
2023-05-09T23:14:25.781Z,4.53
2023-05-09T23:17:13.539Z,3.40
2023-05-09T23:20:01.817Z,6.63
2023-05-09T23:23:01.296Z,4.93
2023-05-09T23:25:48.890Z,5.07
2023-05-09T23:28:36.642Z,3.92
2023-05-09T23:31:24.401Z,11.68
2023-05-09T23:34:12.071Z,5.15
2023-05-09T23:36:59.729Z,8.52
2023-05-09T23:39:47.361Z,12.68
2023-05-09T23:42:35.103Z,4.55
2023-05-09T23:45:23.104Z,9.02
2023-05-09T23:48:11.316Z,10.30
2023-05-09T23:50:59.006Z,9.18
2023-05-09T23:53:46.862Z,4.50
2023-05-09T23:56:34.582Z,3.88
2023-05-09T23:59:22.280Z,7.57
